createdAt,value
2018-03-02T00:00:34.855Z,46.97
2018-03-02T00:03:01.408Z,47.08
2018-03-02T00:05:27.840Z,47.83
2018-03-02T00:07:54.259Z,48.10
2018-03-02T00:10:20.716Z,47.45
2018-03-02T00:12:47.138Z,47.33
2018-03-02T00:15:13.517Z,47.95
2018-03-02T00:17:39.930Z,47.95
2018-03-02T00:20:07.110Z,46.50
2018-03-02T00:22:33.551Z,48.13
2018-03-02T00:24:59.962Z,44.95
2018-03-02T00:27:26.366Z,47.92
2018-03-02T00:29:52.743Z,47.30
2018-03-02T00:32:19.150Z,48.42
2018-03-02T00:34:46.300Z,47.40
2018-03-02T00:37:13.419Z,48.20
2018-03-02T00:39:39.817Z,47.45
2018-03-02T00:42:06.210Z,47.53
2018-03-02T00:44:32.583Z,48.75
2018-03-02T00:46:59.029Z,46.63
2018-03-02T00:49:25.450Z,48.85
2018-03-02T00:51:51.831Z,48.60
2018-03-02T00:54:18.340Z,47.10
2018-03-02T00:56:44.718Z,48.78
2018-03-02T00:59:11.110Z,48.35
2018-03-02T01:01:37.510Z,46.75
2018-03-02T01:04:04.689Z,49.65
2018-03-02T01:06:31.141Z,49.13
2018-03-02T01:08:57.566Z,48.47
2018-03-02T01:11:23.967Z,49.65
2018-03-02T01:13:50.393Z,50.05
2018-03-02T01:16:17.533Z,48.30
2018-03-02T01:18:44.690Z,48.83
2018-03-02T01:21:11.920Z,48.40
2018-03-02T01:23:38.283Z,48.22
2018-03-02T01:26:05.445Z,48.87
2018-03-02T01:28:31.862Z,49.50
2018-03-02T01:30:59.010Z,47.63
2018-03-02T01:33:26.131Z,49.60
2018-03-02T01:35:52.525Z,49.15
2018-03-02T01:38:18.990Z,46.70
2018-03-02T01:40:45.418Z,47.90
2018-03-02T01:43:11.858Z,48.58
2018-03-02T01:45:38.258Z,49.63
2018-03-02T01:48:04.631Z,49.97
2018-03-02T01:50:31.058Z,51.42
2018-03-02T01:52:58.391Z,49.03
2018-03-02T01:55:24.807Z,50.88
2018-03-02T01:57:51.954Z,47.85
2018-03-02T02:00:19.100Z,51.47
2018-03-02T02:02:45.574Z,47.43
2018-03-02T02:05:11.970Z,51.63
2018-03-02T02:07:39.086Z,49.45
2018-03-02T02:10:05.480Z,48.38
2018-03-02T02:12:31.882Z,49.70
2018-03-02T02:14:59.025Z,51.08
2018-03-02T02:17:25.415Z,51.05
2018-03-02T02:19:51.793Z,54.22
2018-03-02T02:22:18.192Z,48.87
2018-03-02T02:24:44.582Z,49.75
2018-03-02T02:27:11.707Z,50.12
2018-03-02T02:29:38.134Z,49.17
2018-03-02T02:32:04.571Z,50.90
2018-03-02T02:34:30.974Z,51.70
2018-03-02T02:36:57.383Z,51.08
2018-03-02T02:39:23.818Z,49.83
2018-03-02T02:41:50.210Z,51.78
2018-03-02T02:44:16.695Z,50.80
2018-03-02T02:46:43.064Z,48.47
2018-03-02T02:49:09.562Z,50.25
2018-03-02T02:51:35.957Z,49.67
2018-03-02T02:54:03.073Z,52.53
2018-03-02T02:56:29.532Z,49.70
2018-03-02T02:58:55.915Z,50.03
2018-03-02T03:01:22.360Z,49.80
2018-03-02T03:03:48.754Z,51.58
2018-03-02T03:06:15.897Z,50.83
2018-03-02T03:08:42.280Z,50.53
2018-03-02T03:11:08.734Z,50.78
2018-03-02T03:13:35.133Z,51.50
2018-03-02T03:16:01.529Z,52.33
2018-03-02T03:18:28.682Z,52.50
2018-03-02T03:20:55.091Z,52.30
2018-03-02T03:23:21.592Z,53.97
2018-03-02T03:25:48.014Z,50.60
2018-03-02T03:28:15.154Z,52.43
2018-03-02T03:30:42.392Z,52.45
2018-03-02T03:33:08.770Z,51.20
2018-03-02T03:35:35.162Z,50.88
2018-03-02T03:38:01.555Z,52.15
2018-03-02T03:40:33.674Z,50.85
2018-03-02T03:43:06.959Z,53.55
2018-03-02T03:45:37.601Z,52.80
2018-03-02T03:48:06.201Z,51.78
2018-03-02T03:50:38.523Z,53.80
2018-03-02T03:53:07.140Z,51.90
2018-03-02T03:55:36.348Z,52.58
2018-03-02T03:58:03.465Z,53.20
2018-03-02T04:00:29.873Z,52.67
2018-03-02T04:02:56.324Z,50.85
2018-03-02T04:05:22.714Z,52.30
2018-03-02T04:07:49.113Z,53.15
2018-03-02T04:10:25.339Z,51.78
2018-03-02T04:12:54.009Z,51.10
2018-03-02T04:15:21.242Z,50.40
2018-03-02T04:17:54.534Z,51.47
2018-03-02T04:20:23.649Z,51.22
2018-03-02T04:22:51.880Z,52.92
2018-03-02T04:25:18.273Z,53.45
2018-03-02T04:27:44.667Z,52.80
2018-03-02T04:30:11.080Z,52.30
2018-03-02T04:32:37.483Z,50.97
2018-03-02T04:35:03.909Z,52.42
2018-03-02T04:37:37.232Z,50.67
2018-03-02T04:40:03.644Z,52.38
2018-03-02T04:42:30.027Z,51.55
2018-03-02T04:44:56.438Z,53.03
2018-03-02T04:47:22.838Z,51.92
2018-03-02T04:49:49.205Z,52.78
2018-03-02T04:52:15.736Z,48.47
2018-03-02T04:54:42.115Z,53.58
2018-03-02T04:57:09.385Z,53.60
2018-03-02T04:59:35.772Z,52.78
2018-03-02T05:02:02.913Z,57.92
2018-03-02T05:04:29.285Z,51.30
2018-03-02T05:06:56.445Z,55.38
2018-03-02T05:09:23.629Z,54.60
2018-03-02T05:11:50.069Z,52.50
2018-03-02T05:14:16.508Z,54.08
2018-03-02T05:16:42.953Z,52.03
2018-03-02T05:19:09.334Z,53.40
2018-03-02T05:21:35.807Z,54.30
2018-03-02T05:24:02.226Z,53.45
2018-03-02T05:26:28.615Z,54.78
2018-03-02T05:28:55.082Z,54.85
2018-03-02T05:31:21.539Z,51.55
2018-03-02T05:33:47.998Z,53.08
2018-03-02T05:36:14.405Z,52.08
2018-03-02T05:38:40.783Z,51.95
2018-03-02T05:41:07.195Z,53.40
2018-03-02T05:43:33.586Z,53.80
2018-03-02T05:45:59.965Z,50.28
2018-03-02T05:48:26.357Z,52.33
2018-03-02T05:50:52.750Z,54.15
2018-03-02T05:53:19.122Z,52.97
2018-03-02T05:55:45.512Z,52.75
2018-03-02T05:58:11.906Z,54.72
2018-03-02T06:00:38.315Z,54.50
2018-03-02T06:03:05.450Z,55.72
2018-03-02T06:05:32.567Z,53.55
2018-03-02T06:07:58.997Z,54.65
2018-03-02T06:10:25.378Z,53.13
2018-03-02T06:12:52.522Z,56.33
2018-03-02T06:15:19.719Z,53.58
2018-03-02T06:17:46.097Z,54.03
2018-03-02T06:20:12.496Z,55.08
2018-03-02T06:22:38.943Z,54.40
2018-03-02T06:25:05.330Z,55.67
2018-03-02T06:27:31.737Z,57.90
2018-03-02T06:29:58.110Z,55.40
2018-03-02T06:32:24.513Z,56.30
2018-03-02T06:34:51.683Z,53.72
2018-03-02T06:37:18.098Z,53.83
2018-03-02T06:39:45.229Z,56.95
2018-03-02T06:42:11.639Z,55.95
2018-03-02T06:44:38.002Z,55.03
2018-03-02T06:47:04.409Z,58.05
2018-03-02T06:49:30.792Z,54.45
2018-03-02T06:51:57.916Z,55.57
2018-03-02T06:54:24.323Z,52.92
2018-03-02T06:56:50.713Z,53.35
2018-03-02T06:59:17.830Z,50.95
2018-03-02T07:01:44.242Z,52.97
2018-03-02T07:04:10.697Z,50.75
2018-03-02T07:06:37.838Z,53.58
2018-03-02T07:09:04.290Z,54.93
2018-03-02T07:11:30.673Z,55.10
2018-03-02T07:13:57.105Z,53.90
2018-03-02T07:16:23.497Z,54.97
2018-03-02T07:18:49.901Z,54.65
2018-03-02T07:21:16.286Z,54.50
2018-03-02T07:23:43.530Z,54.25
2018-03-02T07:26:10.670Z,55.92
2018-03-02T07:28:37.077Z,53.45
2018-03-02T07:31:03.482Z,53.03
2018-03-02T07:33:29.881Z,55.65
2018-03-02T07:35:57.005Z,55.03
2018-03-02T07:38:23.432Z,54.92
2018-03-02T07:40:49.851Z,54.95
2018-03-02T07:43:16.211Z,52.78
2018-03-02T07:45:42.720Z,55.28
2018-03-02T07:48:09.110Z,53.28
2018-03-02T07:50:36.219Z,50.72
2018-03-02T07:53:02.626Z,54.30
2018-03-02T07:55:29.030Z,52.62
2018-03-02T07:57:56.155Z,52.45
2018-03-02T08:00:22.550Z,53.35
2018-03-02T08:02:48.989Z,53.60
2018-03-02T08:05:15.366Z,53.33
2018-03-02T08:07:41.904Z,52.13
2018-03-02T08:10:08.339Z,53.33
2018-03-02T08:12:34.753Z,52.72
2018-03-02T08:15:01.162Z,53.72
2018-03-02T08:17:27.573Z,50.67
2018-03-02T08:19:53.989Z,49.97
2018-03-02T08:22:21.147Z,53.15
2018-03-02T08:24:48.294Z,53.63
2018-03-02T08:27:14.694Z,52.95
2018-03-02T08:29:41.105Z,50.90
2018-03-02T08:32:07.521Z,51.60
2018-03-02T08:34:33.955Z,53.20
2018-03-02T08:37:00.358Z,50.58
2018-03-02T08:39:27.518Z,50.22
2018-03-02T08:41:54.654Z,50.90
2018-03-02T08:44:21.087Z,53.30
2018-03-02T08:46:47.468Z,53.95
2018-03-02T08:49:13.877Z,51.85
2018-03-02T08:51:41.021Z,54.47
2018-03-02T08:54:08.185Z,50.20
2018-03-02T08:56:34.581Z,49.13
2018-03-02T08:59:00.982Z,41.95
2018-03-02T09:01:27.385Z,35.67
2018-03-02T09:03:53.846Z,41.22
2018-03-02T09:06:20.233Z,40.67
2018-03-02T09:08:47.375Z,34.42
2018-03-02T09:11:14.542Z,38.13
2018-03-02T09:13:41.757Z,28.00
2018-03-02T09:16:08.214Z,38.70
2018-03-02T09:18:35.386Z,40.33
2018-03-02T09:21:02.566Z,39.13
2018-03-02T09:23:28.962Z,40.38
2018-03-02T09:25:56.126Z,33.45
2018-03-02T09:28:23.257Z,39.25
2018-03-02T09:30:50.391Z,31.55
2018-03-02T09:33:16.794Z,30.58
2018-03-02T09:35:43.192Z,29.70
2018-03-02T09:38:10.321Z,36.40
2018-03-02T09:40:36.706Z,38.17
2018-03-02T09:43:03.098Z,36.55
2018-03-02T09:45:29.493Z,38.17
2018-03-02T09:47:55.886Z,37.95
2018-03-02T09:50:23.030Z,38.03
2018-03-02T09:52:50.169Z,30.50
2018-03-02T09:55:17.309Z,29.83
2018-03-02T09:57:43.724Z,35.67
2018-03-02T10:00:10.179Z,24.45
2018-03-02T10:02:37.293Z,35.33
2018-03-02T10:05:03.715Z,34.53
2018-03-02T10:07:30.865Z,38.47
2018-03-02T10:09:57.239Z,47.70
2018-03-02T10:12:23.697Z,42.65
2018-03-02T10:14:50.869Z,36.40
2018-03-02T10:17:17.298Z,36.20
2018-03-02T10:19:43.672Z,32.33
2018-03-02T10:22:10.074Z,37.05
2018-03-02T10:24:36.483Z,31.08
2018-03-02T10:27:03.612Z,28.83
2018-03-02T10:29:30.039Z,34.20
2018-03-02T10:31:56.460Z,38.67
2018-03-02T10:34:22.829Z,33.17
2018-03-02T10:36:49.234Z,33.58
2018-03-02T10:39:15.602Z,35.00
2018-03-02T10:41:41.994Z,36.17
2018-03-02T10:44:08.381Z,37.58
2018-03-02T10:46:35.485Z,26.83
2018-03-02T10:49:02.009Z,36.65
2018-03-02T10:51:28.402Z,38.30
2018-03-02T10:53:55.541Z,31.50
2018-03-02T10:56:22.701Z,38.83
2018-03-02T10:58:49.870Z,38.88
2018-03-02T11:01:22.406Z,31.92
2018-03-02T11:03:49.589Z,35.97
2018-03-02T11:06:16.706Z,38.35
2018-03-02T11:08:43.114Z,30.67
2018-03-02T11:11:09.550Z,32.38
2018-03-02T11:13:36.001Z,32.33
2018-03-02T11:16:02.454Z,24.83
2018-03-02T11:18:28.830Z,36.08
2018-03-02T11:20:55.286Z,30.77
2018-03-02T11:23:21.692Z,35.42
2018-03-02T11:25:48.070Z,32.67
2018-03-02T11:28:14.481Z,34.53
2018-03-02T11:33:07.082Z,44.22
2018-03-02T11:35:33.551Z,33.60
2018-03-02T11:37:59.978Z,35.10
2018-03-02T11:40:27.113Z,30.88
2018-03-02T11:42:53.497Z,36.25
2018-03-02T11:45:19.919Z,33.42
2018-03-02T11:47:46.388Z,33.25
2018-03-02T11:50:12.765Z,37.33
2018-03-02T11:52:40.033Z,36.45
2018-03-02T11:55:07.162Z,32.28
2018-03-02T11:57:34.333Z,34.03
2018-03-02T12:00:00.701Z,35.97
2018-03-02T12:02:27.086Z,34.88
2018-03-02T12:04:54.225Z,30.17
2018-03-02T12:07:21.362Z,37.65
2018-03-02T12:09:47.758Z,35.15
2018-03-02T12:12:14.280Z,33.22
2018-03-02T12:14:40.679Z,29.77
2018-03-02T12:17:07.794Z,27.75
2018-03-02T12:19:34.258Z,34.38
2018-03-02T12:22:01.505Z,38.08
2018-03-02T12:24:28.682Z,32.85
2018-03-02T12:26:55.814Z,29.85
2018-03-02T12:29:22.925Z,32.38
2018-03-02T12:31:49.326Z,25.52
2018-03-02T12:34:16.493Z,33.65
2018-03-02T12:36:42.954Z,38.28
2018-03-02T12:39:09.447Z,33.67
2018-03-02T12:41:36.565Z,34.25
2018-03-02T12:44:02.994Z,30.27
2018-03-02T12:46:29.366Z,36.90
2018-03-02T12:48:56.531Z,36.08
2018-03-02T12:51:22.893Z,37.08
2018-03-02T12:53:49.289Z,34.78
2018-03-02T12:56:16.422Z,35.60
2018-03-02T12:58:43.552Z,32.10
2018-03-02T13:01:09.947Z,37.38
2018-03-02T13:03:36.338Z,36.47
2018-03-02T13:06:02.782Z,35.60
2018-03-02T13:08:29.938Z,36.70
2018-03-02T13:10:56.318Z,30.98
2018-03-02T13:13:22.710Z,31.52
2018-03-02T13:15:49.854Z,38.15
2018-03-02T13:18:29.461Z,32.13
2018-03-02T13:20:55.862Z,38.95
2018-03-02T13:23:22.258Z,37.80
2018-03-02T13:25:48.681Z,30.88
2018-03-02T13:28:27.229Z,37.13
2018-03-02T13:30:53.642Z,37.35
2018-03-02T13:33:32.057Z,35.50
2018-03-02T13:35:59.227Z,38.17
2018-03-02T13:38:27.474Z,36.47
2018-03-02T13:41:06.254Z,43.15
2018-03-02T13:43:32.715Z,35.42
2018-03-02T13:45:59.118Z,35.30
2018-03-02T13:48:38.662Z,38.95
2018-03-02T14:03:29.514Z,35.35
2018-03-02T14:05:58.256Z,37.28
2018-03-02T14:08:24.929Z,35.17
2018-03-02T14:10:51.701Z,34.55
2018-03-02T14:13:19.510Z,34.42
2018-03-02T14:15:48.157Z,35.33
2018-03-02T14:18:14.617Z,37.60
2018-03-02T14:20:41.009Z,37.38
2018-03-02T14:23:07.429Z,37.80
2018-03-02T14:25:34.838Z,37.72
2018-03-02T14:28:01.302Z,36.83
2018-03-02T14:30:27.745Z,38.30
2018-03-02T14:32:54.151Z,36.50
2018-03-02T14:35:20.546Z,36.05
2018-03-02T14:37:47.722Z,35.63
2018-03-02T14:40:14.097Z,36.03
2018-03-02T14:42:40.499Z,37.53
2018-03-02T14:45:07.056Z,35.88
2018-03-02T14:47:34.374Z,35.88
2018-03-02T14:50:00.787Z,35.10
2018-03-02T14:52:27.942Z,38.00
2018-03-02T14:54:55.351Z,34.20
2018-03-02T14:57:21.759Z,34.17
2018-03-02T14:59:48.181Z,35.05
2018-03-02T15:02:15.330Z,35.20
2018-03-02T15:04:42.452Z,33.75
2018-03-02T15:07:09.265Z,37.03
2018-03-02T15:09:35.774Z,32.88
2018-03-02T15:12:02.158Z,35.83
2018-03-02T15:14:29.332Z,36.15
2018-03-02T15:16:56.457Z,36.35
2018-03-02T15:19:24.200Z,36.50
2018-03-02T15:21:51.385Z,35.20
2018-03-02T15:24:18.739Z,35.92
2018-03-02T15:26:45.173Z,34.00
2018-03-02T15:29:11.645Z,36.17
2018-03-02T15:31:38.282Z,35.22
2018-03-02T15:34:05.442Z,36.53
2018-03-02T15:36:31.847Z,34.28
2018-03-02T15:38:58.993Z,37.75
2018-03-02T15:41:25.419Z,37.03
2018-03-02T15:43:52.570Z,34.88
2018-03-02T15:46:19.756Z,35.28
2018-03-02T15:48:46.946Z,36.20
2018-03-02T15:51:13.354Z,38.30
2018-03-02T15:53:39.826Z,38.08
2018-03-02T15:56:06.311Z,36.22
2018-03-02T15:58:33.477Z,38.90
2018-03-02T16:03:33.871Z,35.60
2018-03-02T16:06:01.820Z,36.70
2018-03-02T16:08:28.977Z,36.58
2018-03-02T16:10:55.531Z,37.15
2018-03-02T16:13:21.978Z,36.00
2018-03-02T16:15:48.597Z,36.60
2018-03-02T16:18:15.659Z,37.88
2018-03-02T16:20:42.810Z,37.53
2018-03-02T16:23:09.978Z,37.70
2018-03-02T16:25:36.554Z,38.75
2018-03-02T16:28:04.033Z,38.75
2018-03-02T16:30:31.306Z,36.60
2018-03-02T16:32:57.743Z,37.80
2018-03-02T16:35:24.189Z,38.50
2018-03-02T16:37:50.561Z,38.22
2018-03-02T16:40:16.946Z,36.80
2018-03-02T16:42:43.366Z,35.58
2018-03-02T16:45:09.782Z,36.75
2018-03-02T16:47:36.186Z,36.08
2018-03-02T16:50:03.785Z,39.10
2018-03-02T16:52:30.194Z,36.47
2018-03-02T16:54:56.615Z,39.55
2018-03-02T16:57:23.736Z,38.08
2018-03-02T16:59:50.154Z,39.25
2018-03-02T17:02:16.546Z,41.17
2018-03-02T17:04:43.009Z,38.22
2018-03-02T17:07:09.386Z,39.50
